OOCL Jakarta — VRGO7 — position and weather

sailwx.info

Track history (hours):
 
Tides and Currents Weather Stations Pressure Air Temp Water Temp Dewpoint Dewpoint Depression Visibility Wind Speed Wind Dir Waves Ship Positions

OOCL Jakarta

Last reported at 2017-Oct-19 12:14 UTC. Time now 2017-Oct-19 16:12 UTC.
Position N 33°52' E 134°52'.

Length 261 m; draft 10.8 m.

Type: Ship. MMSI: 477738800.

Date/timePositionNaut miles runAvg speedWind from/ knotsBaromVisibWave heightAir tempDewpointWater temp
2017-Oct-19 12:14N 33°52' E 134°52'520.7
2017-Oct-19 11:59N 33°57' E 134°54'1020.4
2017-Oct-19 11:30N 34°06' E 134°57'918.0
2017-Oct-19 11:00N 34°15' E 134°58'510.6
2017-Oct-19 10:29N 34°21' E 134°59'1020.4
2017-Oct-19 09:59N 34°28' E 135°08'1020.4
2017-Oct-19 09:31N 34°36' E 135°15'4 8.2
2017-Oct-19 09:00N 34°40' E 135°15'0 0.1
2017-Oct-19 08:21N 34°40' E 135°14'0 0.0
2017-Oct-19 07:57N 34°40' E 135°14'0 0.0
2017-Oct-19 07:27N 34°40' E 135°14'0 0.0
2017-Oct-19 06:57N 34°40' E 135°14'0 0.0
2017-Oct-19 06:27N 34°40' E 135°14'0 0.0
2017-Oct-19 05:57N 34°40' E 135°14'0 0.0
2017-Oct-19 05:21N 34°40' E 135°14'0 0.0
2017-Oct-19 04:57N 34°40' E 135°14'0 0.0
2017-Oct-19 04:27N 34°40' E 135°14'0 0.0
2017-Oct-19 03:57N 34°40' E 135°14'0 0.0
2017-Oct-19 03:21N 34°40' E 135°14'0 0.0
2017-Oct-19 02:51N 34°40' E 135°14'0 0.0
2017-Oct-19 02:21N 34°40' E 135°14'0 0.0
2017-Oct-19 01:57N 34°40' E 135°14'0 0.0
2017-Oct-19 01:27N 34°40' E 135°14'0 0.0
2017-Oct-19 00:51N 34°40' E 135°14'0 0.0
2017-Oct-19 00:27N 34°40' E 135°14'0 0.0
2017-Oct-18 23:51N 34°40' E 135°14'0 0.0
2017-Oct-18 23:27N 34°40' E 135°14'0 0.0
2017-Oct-18 22:57N 34°40' E 135°14'1 1.9
2017-Oct-18 22:30N 34°39' E 135°15'5 9.9
2017-Oct-18 22:00N 34°34' E 135°15'612.4
2017-Oct-18 21:30N 34°29' E 135°10'814.9
2017-Oct-18 21:00N 34°24' E 135°04'815.9
2017-Oct-18 20:30N 34°17' E 134°59'816.0
2017-Oct-18 20:00N 34°09' E 134°60'713.7
2017-Oct-18 19:30N 34°02' E 134°60'611.3
2017-Oct-18 19:00N 33°57' E 135°00'211 4.6
2017-Oct-16 21:26N 34°42' E 139°09'611.1
2017-Oct-16 20:56N 34°46' E 139°13'510.8
2017-Oct-16 20:30N 34°50' E 139°16'510.4
2017-Oct-16 20:00N 34°54' E 139°21'510.3
2017-Oct-16 19:30N 34°57' E 139°26'510.7
2017-Oct-16 19:00N 34°60' E 139°32'510.3
2017-Oct-16 18:30N 35°03' E 139°36'510.5
2017-Oct-16 18:00N 35°06' E 139°41'611.4
2017-Oct-16 17:30N 35°11' E 139°46'611.0
2017-Oct-16 17:00N 35°16' E 139°45'612.9
2017-Oct-16 16:30N 35°22' E 139°42'816.1
2017-Oct-16 16:00N 35°28' E 139°49'613.0
2017-Oct-16 15:30N 35°35' E 139°48'2 3.2
2017-Oct-16 14:57N 35°36' E 139°47'0 0.0
2017-Oct-16 14:27N 35°36' E 139°47'0 0.0
2017-Oct-16 13:27N 35°36' E 139°47'0 0.0
2017-Oct-16 13:00N 35°36' E 139°47'0 0.0
2017-Oct-16 12:21N 35°36' E 139°47'0 0.0
2017-Oct-16 11:57N 35°36' E 139°47'0 0.0
2017-Oct-16 11:27N 35°36' E 139°47'0 0.0
2017-Oct-16 10:57N 35°36' E 139°47'0 0.0
2017-Oct-16 10:18N 35°36' E 139°47'0 0.0
2017-Oct-16 09:51N 35°36' E 139°47'0 0.0
2017-Oct-16 09:27N 35°36' E 139°47'0 0.0
2017-Oct-16 08:51N 35°36' E 139°47'0 0.0
2017-Oct-16 08:15N 35°36' E 139°47'0 0.0
2017-Oct-16 08:00N 35°36' E 139°47'0 0.0
2017-Oct-16 07:30N 35°36' E 139°47'0 0.0
2017-Oct-16 06:57N 35°36' E 139°47'0 0.0
2017-Oct-16 06:30N 35°36' E 139°47'0 0.0
2017-Oct-16 05:57N 35°36' E 139°47'0 0.0
2017-Oct-16 05:27N 35°36' E 139°47'0 0.0
2017-Oct-16 04:57N 35°36' E 139°47'0 0.0
2017-Oct-16 04:27N 35°36' E 139°47'0 0.0
2017-Oct-16 03:51N 35°36' E 139°47'0 0.2
2017-Oct-16 03:30N 35°36' E 139°47'3 6.0
2017-Oct-16 03:01N 35°34' E 139°49'611.6
2017-Oct-16 02:30N 35°28' E 139°51'714.0
2017-Oct-16 02:00N 35°23' E 139°46'611.8
2017-Oct-16 01:30N 35°17' E 139°46'612.3
2017-Oct-16 01:00N 35°11' E 139°46'4 8.8
2017-Oct-16 00:30N 35°06' E 139°45'611.4
2017-Oct-16 00:00N 35°02' E 139°41'612.1
2017-Oct-15 23:30N 34°58' E 139°35'713.9
2017-Oct-15 23:00N 34°54' E 139°28'  
2017-Oct-13 03:57N 22°08' E 120°18'920.7
2017-Oct-13 03:30N 22°17' E 120°14'1020.6
2017-Oct-13 03:00N 22°27' E 120°12'815.2
2017-Oct-13 02:30N 22°33' E 120°17'2 3.5
2017-Oct-13 02:00N 22°34' E 120°19'1 1.3
2017-Oct-13 01:27N 22°34' E 120°18'0 0.0
2017-Oct-13 00:36N 22°34' E 120°18'0 0.0
2017-Oct-13 00:24N 22°34' E 120°18'0 0.0
2017-Oct-13 00:00N 22°34' E 120°18'0 0.0
2017-Oct-12 23:30N 22°34' E 120°18'0 0.0
2017-Oct-12 23:00N 22°34' E 120°18'0 0.0
2017-Oct-12 22:30N 22°34' E 120°18'0 0.0
2017-Oct-12 22:00N 22°34' E 120°18'0 0.0
2017-Oct-12 20:45N 22°34' E 120°18'0 0.0
2017-Oct-12 20:30N 22°34' E 120°18'0 0.0
2017-Oct-12 20:00N 22°34' E 120°18'0 0.0
2017-Oct-12 18:30N 22°34' E 120°18'0 0.0
2017-Oct-12 17:54N 22°34' E 120°18'0 0.0
2017-Oct-12 17:27N 22°34' E 120°18'1 1.4
2017-Oct-12 17:00N 22°34' E 120°19'3 5.1
2017-Oct-12 16:30N 22°33' E 120°16'5 9.6
2017-Oct-12 16:00N 22°31' E 120°11'2 3.1
2017-Oct-12 15:30N 22°31' E 120°10'3 5.4
2017-Oct-12 15:00N 22°29' E 120°07'4 7.1
2017-Oct-12 14:30N 22°27' E 120°04'4 8.4
2017-Oct-12 14:00N 22°25' E 120°00'611.7
2017-Oct-12 13:30N 22°23' E 119°55'  
Track history (hours):
 
Tides and Currents Weather Stations Pressure Air Temp Water Temp Dewpoint Dewpoint Depression Visibility Wind Speed Wind Dir Waves Ship Positions

OOCL Jakarta

Last reported at 2017-Oct-19 12:14 UTC. Time now 2017-Oct-19 16:12 UTC.
Position N 33°52' E 134°52'.

Length 261 m; draft 10.8 m.

Type: Ship. MMSI: 477738800.

Date/timePositionNaut miles runAvg speedWind from/ knotsBaromVisibWave heightAir tempDewpointWater temp
2017-Oct-19 12:14N 33°52' E 134°52'520.7
2017-Oct-19 11:59N 33°57' E 134°54'1020.4
2017-Oct-19 11:30N 34°06' E 134°57'918.0
2017-Oct-19 11:00N 34°15' E 134°58'510.6
2017-Oct-19 10:29N 34°21' E 134°59'1020.4
2017-Oct-19 09:59N 34°28' E 135°08'1020.4
2017-Oct-19 09:31N 34°36' E 135°15'4 8.2
2017-Oct-19 09:00N 34°40' E 135°15'0 0.1
2017-Oct-19 08:21N 34°40' E 135°14'0 0.0
2017-Oct-19 07:57N 34°40' E 135°14'0 0.0
2017-Oct-19 07:27N 34°40' E 135°14'0 0.0
2017-Oct-19 06:57N 34°40' E 135°14'0 0.0
2017-Oct-19 06:27N 34°40' E 135°14'0 0.0
2017-Oct-19 05:57N 34°40' E 135°14'0 0.0
2017-Oct-19 05:21N 34°40' E 135°14'0 0.0
2017-Oct-19 04:57N 34°40' E 135°14'0 0.0
2017-Oct-19 04:27N 34°40' E 135°14'0 0.0
2017-Oct-19 03:57N 34°40' E 135°14'0 0.0
2017-Oct-19 03:21N 34°40' E 135°14'0 0.0
2017-Oct-19 02:51N 34°40' E 135°14'0 0.0
2017-Oct-19 02:21N 34°40' E 135°14'0 0.0
2017-Oct-19 01:57N 34°40' E 135°14'0 0.0
2017-Oct-19 01:27N 34°40' E 135°14'0 0.0
2017-Oct-19 00:51N 34°40' E 135°14'0 0.0
2017-Oct-19 00:27N 34°40' E 135°14'0 0.0
2017-Oct-18 23:51N 34°40' E 135°14'0 0.0
2017-Oct-18 23:27N 34°40' E 135°14'0 0.0
2017-Oct-18 22:57N 34°40' E 135°14'1 1.9
2017-Oct-18 22:30N 34°39' E 135°15'5 9.9
2017-Oct-18 22:00N 34°34' E 135°15'612.4
2017-Oct-18 21:30N 34°29' E 135°10'814.9
2017-Oct-18 21:00N 34°24' E 135°04'815.9
2017-Oct-18 20:30N 34°17' E 134°59'816.0
2017-Oct-18 20:00N 34°09' E 134°60'713.7
2017-Oct-18 19:30N 34°02' E 134°60'611.3
2017-Oct-18 19:00N 33°57' E 135°00'211 4.6
2017-Oct-16 21:26N 34°42' E 139°09'611.1
2017-Oct-16 20:56N 34°46' E 139°13'510.8
2017-Oct-16 20:30N 34°50' E 139°16'510.4
2017-Oct-16 20:00N 34°54' E 139°21'510.3
2017-Oct-16 19:30N 34°57' E 139°26'510.7
2017-Oct-16 19:00N 34°60' E 139°32'510.3
2017-Oct-16 18:30N 35°03' E 139°36'510.5
2017-Oct-16 18:00N 35°06' E 139°41'611.4
2017-Oct-16 17:30N 35°11' E 139°46'611.0
2017-Oct-16 17:00N 35°16' E 139°45'612.9
2017-Oct-16 16:30N 35°22' E 139°42'816.1
2017-Oct-16 16:00N 35°28' E 139°49'613.0
2017-Oct-16 15:30N 35°35' E 139°48'2 3.2
2017-Oct-16 14:57N 35°36' E 139°47'0 0.0
2017-Oct-16 14:27N 35°36' E 139°47'0 0.0
2017-Oct-16 13:27N 35°36' E 139°47'0 0.0
2017-Oct-16 13:00N 35°36' E 139°47'0 0.0
2017-Oct-16 12:21N 35°36' E 139°47'0 0.0
2017-Oct-16 11:57N 35°36' E 139°47'0 0.0
2017-Oct-16 11:27N 35°36' E 139°47'0 0.0
2017-Oct-16 10:57N 35°36' E 139°47'0 0.0
2017-Oct-16 10:18N 35°36' E 139°47'0 0.0
2017-Oct-16 09:51N 35°36' E 139°47'0 0.0
2017-Oct-16 09:27N 35°36' E 139°47'0 0.0
2017-Oct-16 08:51N 35°36' E 139°47'0 0.0
2017-Oct-16 08:15N 35°36' E 139°47'0 0.0
2017-Oct-16 08:00N 35°36' E 139°47'0 0.0
2017-Oct-16 07:30N 35°36' E 139°47'0 0.0
2017-Oct-16 06:57N 35°36' E 139°47'0 0.0
2017-Oct-16 06:30N 35°36' E 139°47'0 0.0
2017-Oct-16 05:57N 35°36' E 139°47'0 0.0
2017-Oct-16 05:27N 35°36' E 139°47'0 0.0
2017-Oct-16 04:57N 35°36' E 139°47'0 0.0
2017-Oct-16 04:27N 35°36' E 139°47'0 0.0
2017-Oct-16 03:51N 35°36' E 139°47'0 0.2
2017-Oct-16 03:30N 35°36' E 139°47'3 6.0
2017-Oct-16 03:01N 35°34' E 139°49'611.6
2017-Oct-16 02:30N 35°28' E 139°51'714.0
2017-Oct-16 02:00N 35°23' E 139°46'611.8
2017-Oct-16 01:30N 35°17' E 139°46'612.3
2017-Oct-16 01:00N 35°11' E 139°46'4 8.8
2017-Oct-16 00:30N 35°06' E 139°45'611.4
2017-Oct-16 00:00N 35°02' E 139°41'612.1
2017-Oct-15 23:30N 34°58' E 139°35'713.9
2017-Oct-15 23:00N 34°54' E 139°28'  
2017-Oct-13 03:57N 22°08' E 120°18'920.7
2017-Oct-13 03:30N 22°17' E 120°14'1020.6
2017-Oct-13 03:00N 22°27' E 120°12'815.2
2017-Oct-13 02:30N 22°33' E 120°17'2 3.5
2017-Oct-13 02:00N 22°34' E 120°19'1 1.3
2017-Oct-13 01:27N 22°34' E 120°18'0 0.0
2017-Oct-13 00:36N 22°34' E 120°18'0 0.0
2017-Oct-13 00:24N 22°34' E 120°18'0 0.0
2017-Oct-13 00:00N 22°34' E 120°18'0 0.0
2017-Oct-12 23:30N 22°34' E 120°18'0 0.0
2017-Oct-12 23:00N 22°34' E 120°18'0 0.0
2017-Oct-12 22:30N 22°34' E 120°18'0 0.0
2017-Oct-12 22:00N 22°34' E 120°18'0 0.0
2017-Oct-12 20:45N 22°34' E 120°18'0 0.0
2017-Oct-12 20:30N 22°34' E 120°18'0 0.0
2017-Oct-12 20:00N 22°34' E 120°18'0 0.0
2017-Oct-12 18:30N 22°34' E 120°18'0 0.0
2017-Oct-12 17:54N 22°34' E 120°18'0 0.0
2017-Oct-12 17:27N 22°34' E 120°18'1 1.4
2017-Oct-12 17:00N 22°34' E 120°19'3 5.1
2017-Oct-12 16:30N 22°33' E 120°16'5 9.6
2017-Oct-12 16:00N 22°31' E 120°11'2 3.1
2017-Oct-12 15:30N 22°31' E 120°10'3 5.4
2017-Oct-12 15:00N 22°29' E 120°07'4 7.1
2017-Oct-12 14:30N 22°27' E 120°04'4 8.4
2017-Oct-12 14:00N 22°25' E 120°00'611.7
2017-Oct-12 13:30N 22°23' E 119°55'  

Dump ship's entire track history